CheckWX is a tool to help pilots better visualize weather data.  It is not intended as a substitute for an official pre-flight weather briefing.

20:26:30 UTC

EGTE METAR
Exeter International Airport
Exeter, United Kingdom
Current

37 mins ago

EGTE 201950Z 03004KT CAVOK 16/08 Q1027
Observed
Apr-20 @ 19:50 UTC
Wind
  • 030° at 4 KTS
Visibility
10,000+ meters
Flight Rules
VFR
Cloud Levels
  • Clear skies
Temperature
16°C / 61°F
Dewpoint
C / 46°F
Humidity
59%
Altimeter
30.32" Hg
Pressure
1026.92 hPa
Previous

1 hour ago

EGTE 201920Z 03006KT CAVOK 18/10 Q1027
Observed
Apr-20 @ 19:20 UTC
Wind
  • 030° at 6 KTS
Visibility
10,000+ meters
Flight Rules
VFR
Cloud Levels
  • Clear skies
Temperature
18°C / 64°F
Dewpoint
10°C / 50°F
Humidity
60%
Altimeter
30.32" Hg
Pressure
1026.92 hPa
Previous

2 hours ago

EGTE 201850Z 03006KT CAVOK 19/09 Q1027
Observed
Apr-20 @ 18:50 UTC
Wind
  • 030° at 6 KTS
Visibility
10,000+ meters
Flight Rules
VFR
Cloud Levels
  • Clear skies
Temperature
19°C / 66°F
Dewpoint
C / 48°F
Humidity
52%
Altimeter
30.32" Hg
Pressure
1026.92 hPa